sensor_id;sensor_type;location;lat;lon;timestamp;pressure;altitude;pressure_sealevel;temperature;humidity
39681;BME280;26327;42.550;23.120;2022-08-03T07:19:27;92980.13;;;21.76;85.07
39681;BME280;26327;42.550;23.120;2022-08-03T07:21:52;92949.78;;;21.61;85.99
39681;BME280;26327;42.550;23.120;2022-08-03T07:24:17;92951.66;;;21.61;84.28
39681;BME280;26327;42.550;23.120;2022-08-03T07:26:43;92955.22;;;21.72;81.13
39681;BME280;26327;42.550;23.120;2022-08-03T07:29:08;92946.38;;;21.83;83.16
39681;BME280;26327;42.550;23.120;2022-08-03T07:31:34;92965.94;;;21.82;83.23
39681;BME280;26327;42.550;23.120;2022-08-03T07:33:59;92936.91;;;21.87;82.42
39681;BME280;26327;42.550;23.120;2022-08-03T07:36:24;92965.22;;;22.08;81.86
39681;BME280;26327;42.550;23.120;2022-08-03T07:38:51;92891.75;;;21.72;78.86
39681;BME280;26327;42.550;23.120;2022-08-03T07:41:16;93010.31;;;22.40;80.65
39681;BME280;26327;42.550;23.120;2022-08-03T07:43:41;92913.16;;;21.70;82.48
39681;BME280;26327;42.550;23.120;2022-08-03T07:46:07;92918.94;;;21.89;79.91
39681;BME280;26327;42.550;23.120;2022-08-03T07:48:32;92994.50;;;22.45;79.79
39681;BME280;26327;42.550;23.120;2022-08-03T07:50:58;92878.03;;;21.75;78.18
39681;BME280;26327;42.550;23.120;2022-08-03T07:53:23;92844.09;;;21.66;79.34
39681;BME280;26327;42.550;23.120;2022-08-03T07:55:48;92918.88;;;22.27;79.41
39681;BME280;26327;42.550;23.120;2022-08-03T07:58:14;92964.63;;;22.50;83.47
39681;BME280;26327;42.550;23.120;2022-08-03T08:00:43;92912.31;;;22.35;80.72
39681;BME280;26327;42.550;23.120;2022-08-03T08:03:10;92960.06;;;22.72;81.98
39681;BME280;26327;42.550;23.120;2022-08-03T08:05:36;92984.22;;;23.08;81.28
39681;BME280;26327;42.550;23.120;2022-08-03T08:08:02;92975.44;;;23.02;78.95
39681;BME280;26327;42.550;23.120;2022-08-03T08:10:28;92988.16;;;23.32;81.41
39681;BME280;26327;42.550;23.120;2022-08-03T08:12:54;92989.25;;;23.41;80.29
39681;BME280;26327;42.550;23.120;2022-08-03T08:15:20;92911.13;;;23.12;78.30
39681;BME280;26327;42.550;23.120;2022-08-03T08:17:47;92982.00;;;23.64;78.25
39681;BME280;26327;42.550;23.120;2022-08-03T08:20:21;92986.88;;;23.77;74.94
39681;BME280;26327;42.550;23.120;2022-08-03T08:22:48;92986.88;;;23.77;76.50
39681;BME280;26327;42.550;23.120;2022-08-03T08:25:14;92997.03;;;23.95;77.83
39681;BME280;26327;42.550;23.120;2022-08-03T08:27:44;92951.88;;;23.80;76.83
39681;BME280;26327;42.550;23.120;2022-08-03T08:30:09;93014.19;;;24.25;71.34
39681;BME280;26327;42.550;23.120;2022-08-03T08:32:35;92937.06;;;23.94;74.10
39681;BME280;26327;42.550;23.120;2022-08-03T08:35:05;93013.75;;;24.53;71.61
39681;BME280;26327;42.550;23.120;2022-08-03T08:37:31;92987.44;;;24.41;69.44
39681;BME280;26327;42.550;23.120;2022-08-03T08:39:57;92899.66;;;23.96;70.31
39681;BME280;26327;42.550;23.120;2022-08-03T08:42:23;92925.25;;;24.27;68.98
39681;BME280;26327;42.550;23.120;2022-08-03T08:44:48;92920.78;;;24.43;70.15
39681;BME280;26327;42.550;23.120;2022-08-03T08:47:14;92974.78;;;24.94;69.60
39681;BME280;26327;42.550;23.120;2022-08-03T08:49:40;92921.59;;;24.54;67.46
39681;BME280;26327;42.550;23.120;2022-08-03T08:52:09;93008.59;;;25.19;68.58
39681;BME280;26327;42.550;23.120;2022-08-03T08:54:37;92975.88;;;25.03;65.56
39681;BME280;26327;42.550;23.120;2022-08-03T08:57:06;93001.16;;;25.11;67.82
39681;BME280;26327;42.550;23.120;2022-08-03T08:59:32;92970.78;;;24.82;62.93
39681;BME280;26327;42.550;23.120;2022-08-03T09:01:59;92898.72;;;24.37;65.42
39681;BME280;26327;42.550;23.120;2022-08-03T09:04:26;92915.50;;;24.78;65.59
39681;BME280;26327;42.550;23.120;2022-08-03T09:06:52;93000.63;;;25.55;64.98
39681;BME280;26327;42.550;23.120;2022-08-03T09:09:18;92962.81;;;25.63;62.60
39681;BME280;26327;42.550;23.120;2022-08-03T09:11:43;92936.75;;;25.60;64.57
39681;BME280;26327;42.550;23.120;2022-08-03T09:14:10;92832.06;;;25.00;63.23
39681;BME280;26327;42.550;23.120;2022-08-03T09:16:35;92960.88;;;25.94;62.55
39681;BME280;26327;42.550;23.120;2022-08-03T09:19:11;93003.91;;;26.31;62.31
39681;BME280;26327;42.550;23.120;2022-08-03T09:21:40;92933.72;;;26.02;64.86
39681;BME280;26327;42.550;23.120;2022-08-03T09:24:06;92943.03;;;25.99;61.90
39681;BME280;26327;42.550;23.120;2022-08-03T09:26:36;92916.94;;;26.07;60.34
39681;BME280;26327;42.550;23.120;2022-08-03T09:34:01;92927.84;;;26.00;66.26
39681;BME280;26327;42.550;23.120;2022-08-03T09:36:40;92995.81;;;26.62;62.08
39681;BME280;26327;42.550;23.120;2022-08-03T09:39:09;92995.97;;;26.81;61.36
39681;BME280;26327;42.550;23.120;2022-08-03T09:42:05;93006.16;;;27.18;59.77
39681;BME280;26327;42.550;23.120;2022-08-03T09:47:00;92995.47;;;27.18;57.89
39681;BME280;26327;42.550;23.120;2022-08-03T09:49:25;92963.38;;;26.89;58.01
39681;BME280;26327;42.550;23.120;2022-08-03T09:51:51;92999.78;;;27.14;57.15
39681;BME280;26327;42.550;23.120;2022-08-03T09:54:27;92982.03;;;26.99;56.37
39681;BME280;26327;42.550;23.120;2022-08-03T09:56:53;92995.84;;;26.96;60.54
39681;BME280;26327;42.550;23.120;2022-08-03T10:01:49;92951.72;;;27.19;54.73
39681;BME280;26327;42.550;23.120;2022-08-03T10:04:15;92974.63;;;27.25;56.42
39681;BME280;26327;42.550;23.120;2022-08-03T10:06:44;92895.66;;;26.90;55.49
39681;BME280;26327;42.550;23.120;2022-08-03T10:09:12;92909.41;;;27.07;51.76
39681;BME280;26327;42.550;23.120;2022-08-03T10:11:39;92939.94;;;27.54;54.07
39681;BME280;26327;42.550;23.120;2022-08-03T10:14:06;92973.28;;;27.85;59.18
39681;BME280;26327;42.550;23.120;2022-08-03T10:16:37;92880.94;;;27.55;60.55
39681;BME280;26327;42.550;23.120;2022-08-03T10:19:05;92818.03;;;26.96;51.46
39681;BME280;26327;42.550;23.120;2022-08-03T10:21:34;92972.91;;;27.97;51.96
39681;BME280;26327;42.550;23.120;2022-08-03T10:24:02;92864.84;;;27.37;54.88
39681;BME280;26327;42.550;23.120;2022-08-03T10:26:30;92976.06;;;28.23;53.83
39681;BME280;26327;42.550;23.120;2022-08-03T10:28:59;92826.28;;;27.53;51.33
39681;BME280;26327;42.550;23.120;2022-08-03T10:31:31;92920.31;;;28.40;52.38
39681;BME280;26327;42.550;23.120;2022-08-03T10:34:01;92873.75;;;28.22;52.49
39681;BME280;26327;42.550;23.120;2022-08-03T10:36:30;92889.88;;;28.36;51.05
39681;BME280;26327;42.550;23.120;2022-08-03T10:38:58;92950.69;;;29.06;50.40
39681;BME280;26327;42.550;23.120;2022-08-03T10:41:31;92770.13;;;28.57;46.30
39681;BME280;26327;42.550;23.120;2022-08-03T10:44:05;92960.78;;;30.75;46.33
39681;BME280;26327;42.550;23.120;2022-08-03T10:47:01;92962.13;;;31.45;44.78
39681;BME280;26327;42.550;23.120;2022-08-03T11:00:49;92765.47;;;32.05;39.08
39681;BME280;26327;42.550;23.120;2022-08-03T11:03:21;92952.06;;;33.99;38.68
39681;BME280;26327;42.550;23.120;2022-08-03T11:06:14;92884.13;;;33.85;38.94
39681;BME280;26327;42.550;23.120;2022-08-03T11:11:50;92759.38;;;34.26;35.07
39681;BME280;26327;42.550;23.120;2022-08-03T11:14:23;92737.44;;;34.36;34.11
39681;BME280;26327;42.550;23.120;2022-08-03T11:17:06;92789.13;;;34.80;32.78
39681;BME280;26327;42.550;23.120;2022-08-03T11:19:45;92822.59;;;35.78;33.07
39681;BME280;26327;42.550;23.120;2022-08-03T11:22:11;92858.84;;;35.19;33.30
39681;BME280;26327;42.550;23.120;2022-08-03T11:27:41;92933.34;;;37.33;31.42
39681;BME280;26327;42.550;23.120;2022-08-03T11:30:23;92733.91;;;36.32;30.35
39681;BME280;26327;42.550;23.120;2022-08-03T11:45:48;92706.28;;;34.92;31.51
39681;BME280;26327;42.550;23.120;2022-08-03T11:48:42;92716.72;;;36.12;31.10
39681;BME280;26327;42.550;23.120;2022-08-03T11:51:27;92885.69;;;37.32;31.24
39681;BME280;26327;42.550;23.120;2022-08-03T11:53:58;92824.19;;;37.04;28.41
39681;BME280;26327;42.550;23.120;2022-08-03T11:56:45;92724.94;;;37.28;28.67
39681;BME280;26327;42.550;23.120;2022-08-03T11:59:11;92754.00;;;37.43;27.75
39681;BME280;26327;42.550;23.120;2022-08-03T12:01:37;92845.06;;;38.07;26.22
39681;BME280;26327;42.550;23.120;2022-08-03T12:04:06;92766.09;;;36.89;27.70
39681;BME280;26327;42.550;23.120;2022-08-03T12:06:32;92845.28;;;37.39;28.83
39681;BME280;26327;42.550;23.120;2022-08-03T12:09:18;92842.47;;;36.18;29.76
39681;BME280;26327;42.550;23.120;2022-08-03T12:11:47;92785.78;;;35.61;31.53
39681;BME280;26327;42.550;23.120;2022-08-03T12:14:17;92693.28;;;35.07;32.27
39681;BME280;26327;42.550;23.120;2022-08-03T12:16:46;92773.81;;;34.71;31.62
39681;BME280;26327;42.550;23.120;2022-08-03T12:19:13;92687.81;;;34.28;33.24
39681;BME280;26327;42.550;23.120;2022-08-03T12:21:49;92711.03;;;34.95;31.84
39681;BME280;26327;42.550;23.120;2022-08-03T12:24:17;92678.72;;;34.87;29.86
39681;BME280;26327;42.550;23.120;2022-08-03T12:29:18;92775.53;;;35.54;28.34
39681;BME280;26327;42.550;23.120;2022-08-03T12:31:47;92759.91;;;35.15;28.82
39681;BME280;26327;42.550;23.120;2022-08-03T12:34:14;92691.34;;;34.62;27.22
39681;BME280;26327;42.550;23.120;2022-08-03T12:36:50;92701.00;;;34.84;27.16
39681;BME280;26327;42.550;23.120;2022-08-03T12:39:16;92738.09;;;36.70;26.12
39681;BME280;26327;42.550;23.120;2022-08-03T12:41:42;92703.50;;;36.63;27.21
39681;BME280;26327;42.550;23.120;2022-08-03T12:47:55;92890.16;;;38.43;27.75
39681;BME280;26327;42.550;23.120;2022-08-03T13:01:50;92908.09;;;40.18;25.95
39681;BME280;26327;42.550;23.120;2022-08-03T13:07:42;92830.09;;;40.03;25.68
39681;BME280;26327;42.550;23.120;2022-08-03T13:13:12;92680.34;;;39.73;24.68
39681;BME280;26327;42.550;23.120;2022-08-03T13:15:40;92863.16;;;40.27;23.64
39681;BME280;26327;42.550;23.120;2022-08-03T13:18:24;92783.16;;;39.41;24.97
39681;BME280;26327;42.550;23.120;2022-08-03T13:20:49;92805.91;;;39.97;26.88
39681;BME280;26327;42.550;23.120;2022-08-03T13:23:16;92704.91;;;38.88;24.98
39681;BME280;26327;42.550;23.120;2022-08-03T13:25:41;92690.50;;;39.26;25.15
39681;BME280;26327;42.550;23.120;2022-08-03T13:28:12;92680.06;;;36.15;26.88
39681;BME280;26327;42.550;23.120;2022-08-03T13:30:40;92815.50;;;37.27;28.36
39681;BME280;26327;42.550;23.120;2022-08-03T13:33:08;92816.66;;;38.52;25.00
39681;BME280;26327;42.550;23.120;2022-08-03T13:35:34;92861.19;;;39.21;25.43
39681;BME280;26327;42.550;23.120;2022-08-03T13:38:17;92806.00;;;39.17;26.73
39681;BME280;26327;42.550;23.120;2022-08-03T13:40:57;92837.44;;;39.56;25.13
39681;BME280;26327;42.550;23.120;2022-08-03T13:46:38;92894.38;;;40.34;24.94
39681;BME280;26327;42.550;23.120;2022-08-03T13:49:07;92701.78;;;38.86;24.54
39681;BME280;26327;42.550;23.120;2022-08-03T13:51:40;92703.69;;;37.93;25.98
39681;BME280;26327;42.550;23.120;2022-08-03T13:54:06;92834.66;;;36.66;29.16
39681;BME280;26327;42.550;23.120;2022-08-03T13:56:34;92877.91;;;35.02;31.66
39681;BME280;26327;42.550;23.120;2022-08-03T13:59:00;92785.63;;;33.87;33.13
39681;BME280;26327;42.550;23.120;2022-08-03T14:01:38;92697.34;;;32.09;34.96
39681;BME280;26327;42.550;23.120;2022-08-03T14:04:06;92651.50;;;32.06;37.04
39681;BME280;26327;42.550;23.120;2022-08-03T14:06:44;92660.19;;;32.37;35.34
39681;BME280;26327;42.550;23.120;2022-08-03T14:09:20;92613.38;;;31.35;35.66
39681;BME280;26327;42.550;23.120;2022-08-03T14:12:04;92639.41;;;30.55;36.96
39681;BME280;26327;42.550;23.120;2022-08-03T14:14:39;92625.78;;;29.98;37.60
39681;BME280;26327;42.550;23.120;2022-08-03T14:17:07;92875.59;;;31.48;39.58
39681;BME280;26327;42.550;23.120;2022-08-03T14:19:33;92747.47;;;30.19;40.50
39681;BME280;26327;42.550;23.120;2022-08-03T14:22:12;92623.31;;;29.15;42.04
39681;BME280;26327;42.550;23.120;2022-08-03T14:24:38;92661.84;;;29.28;44.37
39681;BME280;26327;42.550;23.120;2022-08-03T14:27:15;92637.59;;;28.97;42.73
39681;BME280;26327;42.550;23.120;2022-08-03T14:29:41;92617.47;;;28.45;42.45
39681;BME280;26327;42.550;23.120;2022-08-03T14:32:11;92764.31;;;29.15;42.41
39681;BME280;26327;42.550;23.120;2022-08-03T14:34:42;92635.13;;;28.27;45.18
39681;BME280;26327;42.550;23.120;2022-08-03T14:37:10;92732.59;;;28.95;45.64
39681;BME280;26327;42.550;23.120;2022-08-03T14:39:35;92874.66;;;29.86;45.71
39681;BME280;26327;42.550;23.120;2022-08-03T14:42:03;92619.84;;;28.46;44.87
39681;BME280;26327;42.550;23.120;2022-08-03T14:44:32;92887.13;;;30.18;44.38
39681;BME280;26327;42.550;23.120;2022-08-03T14:47:00;92896.88;;;30.99;43.39
39681;BME280;26327;42.550;23.120;2022-08-03T14:49:27;92723.75;;;29.76;43.37
39681;BME280;26327;42.550;23.120;2022-08-03T14:51:53;92700.31;;;29.19;45.40
39681;BME280;26327;42.550;23.120;2022-08-03T14:54:22;92763.66;;;29.37;45.33
39681;BME280;26327;42.550;23.120;2022-08-03T14:56:57;92653.59;;;28.70;46.21
39681;BME280;26327;42.550;23.120;2022-08-03T14:59:26;92807.16;;;29.42;46.11
39681;BME280;26327;42.550;23.120;2022-08-03T15:01:51;92874.84;;;30.03;46.03
39681;BME280;26327;42.550;23.120;2022-08-03T15:04:17;92675.41;;;28.77;48.51
39681;BME280;26327;42.550;23.120;2022-08-03T15:06:44;92709.06;;;28.78;45.85
39681;BME280;26327;42.550;23.120;2022-08-03T15:09:10;92770.53;;;28.64;46.12
39681;BME280;26327;42.550;23.120;2022-08-03T15:11:35;92861.28;;;29.39;49.26
39681;BME280;26327;42.550;23.120;2022-08-03T15:14:01;92834.75;;;28.78;47.51
39681;BME280;26327;42.550;23.120;2022-08-03T15:16:27;92849.91;;;28.50;48.44
39681;BME280;26327;42.550;23.120;2022-08-03T15:18:52;92765.56;;;27.64;49.77
39681;BME280;26327;42.550;23.120;2022-08-03T15:21:17;92817.09;;;27.64;50.62
39681;BME280;26327;42.550;23.120;2022-08-03T15:23:45;92855.00;;;27.85;50.74
39681;BME280;26327;42.550;23.120;2022-08-03T15:26:10;92782.44;;;27.35;50.79
39681;BME280;26327;42.550;23.120;2022-08-03T15:28:36;92861.97;;;27.57;51.37
39681;BME280;26327;42.550;23.120;2022-08-03T15:31:01;92760.44;;;26.66;51.71
39681;BME280;26327;42.550;23.120;2022-08-03T15:33:27;92785.19;;;26.72;51.36
39681;BME280;26327;42.550;23.120;2022-08-03T15:35:53;92722.66;;;26.25;55.59
39681;BME280;26327;42.550;23.120;2022-08-03T15:38:19;92852.72;;;26.91;52.33
39681;BME280;26327;42.550;23.120;2022-08-03T15:40:44;92761.69;;;26.74;52.37
39681;BME280;26327;42.550;23.120;2022-08-03T15:43:10;92850.63;;;27.94;51.85
39681;BME280;26327;42.550;23.120;2022-08-03T15:45:35;92786.53;;;27.04;51.63
39681;BME280;26327;42.550;23.120;2022-08-03T15:48:01;92911.44;;;27.49;52.91
39681;BME280;26327;42.550;23.120;2022-08-03T15:50:26;92862.81;;;26.94;53.35
39681;BME280;26327;42.550;23.120;2022-08-03T15:52:54;92873.78;;;26.98;54.82
39681;BME280;26327;42.550;23.120;2022-08-03T15:55:20;92841.28;;;26.57;55.27
39681;BME280;26327;42.550;23.120;2022-08-03T15:57:48;92788.69;;;25.89;56.37
39681;BME280;26327;42.550;23.120;2022-08-03T16:00:14;92851.44;;;26.00;56.02
39681;BME280;26327;42.550;23.120;2022-08-03T16:02:39;92857.78;;;26.15;55.86
39681;BME280;26327;42.550;23.120;2022-08-03T16:05:05;92913.34;;;26.31;55.83
39681;BME280;26327;42.550;23.120;2022-08-03T16:07:30;92875.88;;;26.18;56.53
39681;BME280;26327;42.550;23.120;2022-08-03T16:10:16;92839.78;;;25.91;58.65
39681;BME280;26327;42.550;23.120;2022-08-03T16:12:42;92813.09;;;25.42;58.93
39681;BME280;26327;42.550;23.120;2022-08-03T16:15:12;92920.16;;;26.03;60.61
39681;BME280;26327;42.550;23.120;2022-08-03T16:17:38;92884.50;;;25.89;57.79
39681;BME280;26327;42.550;23.120;2022-08-03T16:20:05;92824.25;;;25.44;60.89
39681;BME280;26327;42.550;23.120;2022-08-03T16:22:32;92831.50;;;25.18;60.97
39681;BME280;26327;42.550;23.120;2022-08-03T16:24:58;92877.97;;;25.56;61.04
39681;BME280;26327;42.550;23.120;2022-08-03T16:27:24;92825.16;;;25.09;60.77
39681;BME280;26327;42.550;23.120;2022-08-03T16:29:49;92896.84;;;25.70;62.65
39681;BME280;26327;42.550;23.120;2022-08-03T16:32:15;92900.03;;;25.62;64.61
39681;BME280;26327;42.550;23.120;2022-08-03T16:34:43;92688.13;;;24.27;66.20
39681;BME280;26327;42.550;23.120;2022-08-03T16:37:08;92664.78;;;23.88;62.46
39681;BME280;26327;42.550;23.120;2022-08-03T16:39:34;92642.50;;;23.84;64.30
39681;BME280;26327;42.550;23.120;2022-08-03T16:42:00;92895.56;;;25.32;64.93
39681;BME280;26327;42.550;23.120;2022-08-03T16:44:26;92876.94;;;25.37;65.77
39681;BME280;26327;42.550;23.120;2022-08-03T16:46:52;92923.97;;;25.52;65.80
39681;BME280;26327;42.550;23.120;2022-08-03T16:49:21;92930.88;;;25.53;67.48
39681;BME280;26327;42.550;23.120;2022-08-03T16:51:46;92743.34;;;24.25;68.91
39681;BME280;26327;42.550;23.120;2022-08-03T16:54:11;92936.81;;;25.14;72.52
39681;BME280;26327;42.550;23.120;2022-08-03T16:56:37;92933.63;;;25.17;71.88
39681;BME280;26327;42.550;23.120;2022-08-03T16:59:03;92731.66;;;23.95;71.60
39681;BME280;26327;42.550;23.120;2022-08-03T17:01:29;92934.13;;;25.04;75.66
39681;BME280;26327;42.550;23.120;2022-08-03T17:03:57;92896.66;;;24.75;76.79
39681;BME280;26327;42.550;23.120;2022-08-03T17:06:23;92933.06;;;24.85;78.63
39681;BME280;26327;42.550;23.120;2022-08-03T17:08:49;92889.66;;;24.23;79.56
39681;BME280;26327;42.550;23.120;2022-08-03T17:11:15;92860.88;;;23.90;78.96
39681;BME280;26327;42.550;23.120;2022-08-03T17:14:26;92759.03;;;23.18;81.43
39681;BME280;26327;42.550;23.120;2022-08-03T17:17:03;92942.22;;;24.26;80.60
39681;BME280;26327;42.550;23.120;2022-08-03T17:19:32;92940.78;;;23.93;78.48
39681;BME280;26327;42.550;23.120;2022-08-03T17:22:04;92830.81;;;23.11;82.30
39681;BME280;26327;42.550;23.120;2022-08-03T17:24:37;92869.97;;;23.46;82.06
39681;BME280;26327;42.550;23.120;2022-08-03T17:27:06;92925.50;;;23.63;79.00
39681;BME280;26327;42.550;23.120;2022-08-03T17:29:35;92913.75;;;23.54;76.68
39681;BME280;26327;42.550;23.120;2022-08-03T17:32:02;92936.81;;;23.48;85.97
39681;BME280;26327;42.550;23.120;2022-08-03T17:34:28;92946.72;;;23.63;85.66
39681;BME280;26327;42.550;23.120;2022-08-03T17:36:54;92848.03;;;23.09;84.86
39681;BME280;26327;42.550;23.120;2022-08-03T17:39:20;92816.72;;;22.69;84.71
39681;BME280;26327;42.550;23.120;2022-08-03T17:41:47;92891.50;;;23.13;84.74
39681;BME280;26327;42.550;23.120;2022-08-03T17:44:12;92917.03;;;23.24;84.62
39681;BME280;26327;42.550;23.120;2022-08-03T17:46:38;92757.16;;;22.02;85.67
39681;BME280;26327;42.550;23.120;2022-08-03T17:49:03;92764.31;;;22.02;88.08
39681;BME280;26327;42.550;23.120;2022-08-03T17:51:38;92903.50;;;22.83;87.12
39681;BME280;26327;42.550;23.120;2022-08-03T17:54:23;92850.84;;;22.28;89.03
39681;BME280;26327;42.550;23.120;2022-08-03T17:57:08;92943.75;;;22.80;88.88
39681;BME280;26327;42.550;23.120;2022-08-03T18:05:35;92821.38;;;21.92;88.70
39681;BME280;26327;42.550;23.120;2022-08-03T18:08:01;92829.56;;;21.91;86.59
39681;BME280;26327;42.550;23.120;2022-08-03T18:10:30;92863.25;;;22.00;88.67
39681;BME280;26327;42.550;23.120;2022-08-03T18:13:13;92823.56;;;21.52;90.49
39681;BME280;26327;42.550;23.120;2022-08-03T18:15:51;92955.84;;;22.00;94.11
39681;BME280;26327;42.550;23.120;2022-08-03T18:18:19;92922.94;;;21.91;93.07
39681;BME280;26327;42.550;23.120;2022-08-03T18:20:51;92842.88;;;21.14;92.90
39681;BME280;26327;42.550;23.120;2022-08-03T18:23:17;92824.75;;;21.00;93.59
39681;BME280;26327;42.550;23.120;2022-08-03T18:25:44;92970.22;;;22.05;95.27
39681;BME280;26327;42.550;23.120;2022-08-03T18:28:11;92941.22;;;21.93;94.43
39681;BME280;26327;42.550;23.120;2022-08-03T18:30:41;92776.63;;;20.77;94.95
39681;BME280;26327;42.550;23.120;2022-08-03T18:33:07;92975.31;;;22.11;94.90
39681;BME280;26327;42.550;23.120;2022-08-03T18:35:35;92966.91;;;21.97;93.54
39681;BME280;26327;42.550;23.120;2022-08-03T18:38:02;92856.25;;;21.24;94.98
39681;BME280;26327;42.550;23.120;2022-08-03T18:40:28;92828.44;;;20.99;94.95
39681;BME280;26327;42.550;23.120;2022-08-03T18:42:54;92892.38;;;21.35;95.68
39681;BME280;26327;42.550;23.120;2022-08-03T18:45:20;92966.75;;;21.82;96.43
39681;BME280;26327;42.550;23.120;2022-08-03T18:47:56;92981.81;;;21.82;95.86
39681;BME280;26327;42.550;23.120;2022-08-03T18:51:08;92984.47;;;21.82;92.58
39681;BME280;26327;42.550;23.120;2022-08-03T18:53:41;92990.91;;;21.91;92.15
39681;BME280;26327;42.550;23.120;2022-08-03T18:56:13;92741.63;;;20.31;92.19
39681;BME280;26327;42.550;23.120;2022-08-03T18:59:08;92985.34;;;21.71;91.52
39681;BME280;26327;42.550;23.120;2022-08-03T19:04:08;92981.69;;;21.55;93.39
39681;BME280;26327;42.550;23.120;2022-08-03T19:12:04;92759.38;;;19.85;96.21
39681;BME280;26327;42.550;23.120;2022-08-03T19:14:41;92762.91;;;19.91;95.89
39681;BME280;26327;42.550;23.120;2022-08-03T19:17:10;92834.69;;;20.09;97.52
39681;BME280;26327;42.550;23.120;2022-08-03T19:19:37;92824.38;;;20.08;96.77
39681;BME280;26327;42.550;23.120;2022-08-03T19:22:03;92761.13;;;19.51;98.44
39681;BME280;26327;42.550;23.120;2022-08-03T19:24:31;92859.63;;;20.19;98.77
39681;BME280;26327;42.550;23.120;2022-08-03T19:26:59;92879.69;;;20.20;97.20
39681;BME280;26327;42.550;23.120;2022-08-03T19:29:25;92771.63;;;19.34;99.23
39681;BME280;26327;42.550;23.120;2022-08-03T19:31:54;92880.53;;;19.92;98.82
39681;BME280;26327;42.550;23.120;2022-08-03T19:34:23;93000.44;;;20.41;98.95
39681;BME280;26327;42.550;23.120;2022-08-03T19:36:49;92867.66;;;19.67;99.44
39681;BME280;26327;42.550;23.120;2022-08-03T19:39:14;93013.53;;;20.64;98.98
39681;BME280;26327;42.550;23.120;2022-08-03T19:41:41;92834.81;;;19.46;98.94
39681;BME280;26327;42.550;23.120;2022-08-03T19:44:22;93004.91;;;20.29;100.00
39681;BME280;26327;42.550;23.120;2022-08-03T19:47:13;93008.88;;;20.15;100.00
39681;BME280;26327;42.550;23.120;2022-08-03T19:49:54;92776.94;;;18.71;100.00
39681;BME280;26327;42.550;23.120;2022-08-03T19:52:25;92743.19;;;18.21;100.00
39681;BME280;26327;42.550;23.120;2022-08-03T19:55:13;92713.94;;;18.06;100.00
39681;BME280;26327;42.550;23.120;2022-08-03T19:57:52;92841.91;;;18.59;100.00
39681;BME280;26327;42.550;23.120;2022-08-03T20:00:34;92788.13;;;18.31;100.00
39681;BME280;26327;42.550;23.120;2022-08-03T20:03:19;92705.16;;;17.58;100.00
39681;BME280;26327;42.550;23.120;2022-08-03T20:05:55;92697.06;;;17.60;100.00
39681;BME280;26327;42.550;23.120;2022-08-03T20:08:21;92909.44;;;18.76;100.00
39681;BME280;26327;42.550;23.120;2022-08-03T20:11:06;92827.78;;;18.06;100.00
39681;BME280;26327;42.550;23.120;2022-08-03T20:13:44;92744.06;;;17.50;100.00
39681;BME280;26327;42.550;23.120;2022-08-03T20:16:17;92705.63;;;17.25;100.00
39681;BME280;26327;42.550;23.120;2022-08-03T20:18:46;92842.09;;;17.80;100.00
39681;BME280;26327;42.550;23.120;2022-08-03T20:21:16;92855.19;;;17.99;100.00
39681;BME280;26327;42.550;23.120;2022-08-03T20:23:49;92943.31;;;18.43;100.00
39681;BME280;26327;42.550;23.120;2022-08-03T20:26:15;92950.66;;;18.41;100.00
39681;BME280;26327;42.550;23.120;2022-08-03T20:28:46;92950.19;;;18.44;100.00
39681;BME280;26327;42.550;23.120;2022-08-03T20:31:15;92971.75;;;18.52;100.00
39681;BME280;26327;42.550;23.120;2022-08-03T20:33:41;92823.75;;;17.44;100.00
39681;BME280;26327;42.550;23.120;2022-08-03T20:36:08;92829.22;;;17.42;100.00
39681;BME280;26327;42.550;23.120;2022-08-03T20:38:34;92802.56;;;17.27;100.00
39681;BME280;26327;42.550;23.120;2022-08-03T20:41:00;92791.75;;;17.05;100.00
39681;BME280;26327;42.550;23.120;2022-08-03T20:43:25;92939.63;;;18.20;100.00
39681;BME280;26327;42.550;23.120;2022-08-03T20:45:54;92897.63;;;17.84;100.00
39681;BME280;26327;42.550;23.120;2022-08-03T20:48:21;92869.28;;;17.74;100.00
39681;BME280;26327;42.550;23.120;2022-08-03T20:50:50;92779.19;;;17.07;100.00
39681;BME280;26327;42.550;23.120;2022-08-03T20:53:21;93019.97;;;18.65;100.00
39681;BME280;26327;42.550;23.120;2022-08-03T20:56:05;92846.13;;;17.16;100.00
39681;BME280;26327;42.550;23.120;2022-08-03T20:58:41;92862.31;;;17.31;100.00
39681;BME280;26327;42.550;23.120;2022-08-03T21:01:07;92873.00;;;17.48;100.00
39681;BME280;26327;42.550;23.120;2022-08-03T21:03:32;93033.53;;;18.32;100.00
39681;BME280;26327;42.550;23.120;2022-08-03T21:06:00;92938.81;;;17.90;100.00
39681;BME280;26327;42.550;23.120;2022-08-03T21:08:31;92932.84;;;17.65;100.00
39681;BME280;26327;42.550;23.120;2022-08-03T21:14:18;93042.50;;;18.42;100.00
39681;BME280;26327;42.550;23.120;2022-08-03T21:16:49;93026.75;;;18.24;100.00
39681;BME280;26327;42.550;23.120;2022-08-03T21:19:16;93047.56;;;18.25;100.00
39681;BME280;26327;42.550;23.120;2022-08-03T21:21:43;93058.47;;;18.29;100.00
39681;BME280;26327;42.550;23.120;2022-08-03T21:24:11;93035.19;;;17.96;100.00
39681;BME280;26327;42.550;23.120;2022-08-03T21:26:47;93054.38;;;17.97;100.00
39681;BME280;26327;42.550;23.120;2022-08-03T21:29:13;92978.78;;;17.37;100.00
39681;BME280;26327;42.550;23.120;2022-08-03T21:31:41;92936.84;;;17.12;100.00
39681;BME280;26327;42.550;23.120;2022-08-03T21:34:07;93021.00;;;17.60;100.00
39681;BME280;26327;42.550;23.120;2022-08-03T21:36:36;92954.56;;;17.17;100.00
39681;BME280;26327;42.550;23.120;2022-08-03T21:39:04;92865.44;;;16.60;100.00
39681;BME280;26327;42.550;23.120;2022-08-03T21:41:31;93007.28;;;17.58;100.00
39681;BME280;26327;42.550;23.120;2022-08-03T21:43:57;93057.03;;;17.78;100.00